createdAt,value
2018-11-03T00:02:36.584Z,80.62
2018-11-03T00:05:10.741Z,81.07
2018-11-03T00:07:43.815Z,80.78
2018-11-03T00:10:16.290Z,80.86
2018-11-03T00:12:48.620Z,81.19
2018-11-03T00:15:21.113Z,81.27
2018-11-03T00:17:53.535Z,81.15
2018-11-03T00:20:25.973Z,81.23
2018-11-03T00:22:58.317Z,80.80
2018-11-03T00:25:37.590Z,81.21
2018-11-03T00:28:10.004Z,80.86
2018-11-03T00:30:43.397Z,81.64
2018-11-03T00:33:15.794Z,80.93
2018-11-03T00:35:48.145Z,80.43
2018-11-03T00:38:20.456Z,81.00
2018-11-03T00:40:52.972Z,81.11
2018-11-03T00:43:25.266Z,81.28
2018-11-03T00:45:57.608Z,81.49
2018-11-03T00:48:29.934Z,81.02
2018-11-03T00:51:02.323Z,80.81
2018-11-03T00:53:35.674Z,80.56
2018-11-03T00:56:13.877Z,81.01
2018-11-03T00:58:48.766Z,80.91
2018-11-03T01:01:23.321Z,81.12
2018-11-03T01:04:01.053Z,80.92
2018-11-03T01:06:33.986Z,81.28
2018-11-03T01:09:08.951Z,81.76
2018-11-03T01:11:42.363Z,81.06
2018-11-03T01:14:15.543Z,81.35
2018-11-03T01:16:48.273Z,81.52
2018-11-03T01:19:21.178Z,81.28
2018-11-03T01:21:53.902Z,81.72
2018-11-03T01:24:26.329Z,81.62
2018-11-03T01:26:59.646Z,81.52
2018-11-03T01:29:32.046Z,81.31
2018-11-03T01:32:04.507Z,81.52
2018-11-03T01:34:36.954Z,81.20
2018-11-03T01:37:09.325Z,81.26
2018-11-03T01:39:43.956Z,81.88
2018-11-03T01:42:16.286Z,82.01
2018-11-03T01:44:48.763Z,81.38
2018-11-03T01:47:21.764Z,81.53
2018-11-03T01:49:54.846Z,81.63
2018-11-03T01:52:27.150Z,81.53
2018-11-03T01:54:59.694Z,81.66
2018-11-03T01:57:31.989Z,81.80
2018-11-03T02:00:04.990Z,82.01
2018-11-03T02:02:37.689Z,81.95
2018-11-03T02:05:10.469Z,82.24
2018-11-03T02:07:42.763Z,81.94
2018-11-03T02:10:15.091Z,82.08
2018-11-03T02:12:47.590Z,81.54
2018-11-03T02:15:19.906Z,81.08
2018-11-03T02:17:52.373Z,81.01
2018-11-03T02:20:24.889Z,80.77
2018-11-03T02:22:57.202Z,81.44
2018-11-03T02:25:29.638Z,82.00
2018-11-03T02:28:02.003Z,82.04
2018-11-03T02:30:34.539Z,81.18
2018-11-03T02:33:06.946Z,81.71
2018-11-03T02:35:39.330Z,81.94
2018-11-03T02:38:11.743Z,81.65
2018-11-03T02:40:44.029Z,81.56
2018-11-03T02:43:16.415Z,81.50
2018-11-03T02:45:48.750Z,81.63
2018-11-03T02:48:21.224Z,81.83
2018-11-03T02:50:53.800Z,81.95
2018-11-03T02:53:26.173Z,81.75
2018-11-03T02:55:58.479Z,81.57
2018-11-03T02:58:30.864Z,82.18
2018-11-03T03:01:03.229Z,81.31
2018-11-03T03:03:35.527Z,81.01
2018-11-03T03:06:07.921Z,81.55
2018-11-03T03:08:40.190Z,81.91
2018-11-03T03:11:12.514Z,82.48
2018-11-03T03:13:44.937Z,82.42
2018-11-03T03:16:17.214Z,82.20
2018-11-03T03:18:49.527Z,82.21
2018-11-03T03:21:22.006Z,82.35
2018-11-03T03:23:54.406Z,82.36
2018-11-03T03:26:26.893Z,81.73
2018-11-03T03:28:59.433Z,82.22
2018-11-03T03:31:31.670Z,82.84
2018-11-03T03:34:04.499Z,82.37
2018-11-03T03:36:37.001Z,81.88
2018-11-03T03:39:10.459Z,81.36
2018-11-03T03:41:42.760Z,81.80
2018-11-03T03:44:15.049Z,82.03
2018-11-03T03:46:47.349Z,82.10
2018-11-03T03:49:19.687Z,82.08
2018-11-03T03:51:52.357Z,82.49
2018-11-03T03:54:24.683Z,82.17
2018-11-03T03:56:57.005Z,82.64
2018-11-03T03:59:29.361Z,82.32
2018-11-03T04:02:01.984Z,82.46
2018-11-03T04:04:34.306Z,82.31
2018-11-03T04:07:06.739Z,82.33
2018-11-03T04:09:39.137Z,81.88
2018-11-03T04:12:11.528Z,82.16
2018-11-03T04:14:43.801Z,82.34
2018-11-03T04:17:16.137Z,82.60
2018-11-03T04:19:48.425Z,82.45
2018-11-03T04:22:20.865Z,82.32
2018-11-03T04:24:53.158Z,81.99
2018-11-03T04:27:25.542Z,82.87
2018-11-03T04:29:57.842Z,82.62
2018-11-03T04:32:30.278Z,82.49
2018-11-03T04:35:02.618Z,82.51
2018-11-03T04:37:34.921Z,82.82
2018-11-03T04:40:08.878Z,81.82
2018-11-03T04:42:41.698Z,82.61
2018-11-03T04:45:14.144Z,82.51
2018-11-03T04:47:46.577Z,82.09
2018-11-03T04:50:18.881Z,82.20
2018-11-03T04:52:51.190Z,82.08
2018-11-03T04:55:23.639Z,82.45
2018-11-03T04:57:55.843Z,82.82
2018-11-03T05:00:28.135Z,82.21
2018-11-03T05:03:00.541Z,82.09
2018-11-03T05:05:32.811Z,82.36
2018-11-03T05:08:05.341Z,81.94
2018-11-03T05:10:37.679Z,82.63
2018-11-03T05:13:10.094Z,82.16
2018-11-03T05:15:42.561Z,82.31
2018-11-03T05:18:14.897Z,82.72
2018-11-03T05:20:47.174Z,81.83
2018-11-03T05:23:19.941Z,82.68
2018-11-03T05:25:52.362Z,82.33
2018-11-03T05:28:24.675Z,82.73
2018-11-03T05:30:57.105Z,82.52
2018-11-03T05:33:29.495Z,82.77
2018-11-03T05:36:01.859Z,81.86
2018-11-03T05:38:34.259Z,81.88
2018-11-03T05:41:06.656Z,82.51
2018-11-03T05:43:39.101Z,81.87
2018-11-03T05:46:11.533Z,82.10
2018-11-03T05:48:43.996Z,82.60
2018-11-03T05:51:16.477Z,81.92
2018-11-03T05:53:48.859Z,81.92
2018-11-03T05:56:21.358Z,82.36
2018-11-03T05:58:53.752Z,82.28
2018-11-03T06:01:26.091Z,81.25
2018-11-03T06:03:58.481Z,81.71
2018-11-03T06:06:30.762Z,81.67
2018-11-03T06:09:03.911Z,82.64
2018-11-03T06:11:36.229Z,82.72
2018-11-03T06:14:08.566Z,82.36
2018-11-03T06:16:41.159Z,82.27
2018-11-03T06:19:13.459Z,82.17
2018-11-03T06:21:45.786Z,82.73
2018-11-03T06:24:18.135Z,82.67
2018-11-03T06:26:50.463Z,83.11
2018-11-03T06:29:22.766Z,82.67
2018-11-03T06:31:55.119Z,82.71
2018-11-03T06:34:27.466Z,83.01
2018-11-03T06:36:59.804Z,82.60
2018-11-03T06:39:32.216Z,82.47
2018-11-03T06:42:05.326Z,82.55
2018-11-03T06:44:37.605Z,82.31
2018-11-03T06:47:10.046Z,82.22
2018-11-03T06:49:42.776Z,81.58
2018-11-03T06:52:15.405Z,82.12
2018-11-03T06:54:47.655Z,82.05
2018-11-03T06:57:19.937Z,82.31
2018-11-03T06:59:52.299Z,82.14
2018-11-03T07:02:24.702Z,81.34
2018-11-03T07:04:57.052Z,81.37
2018-11-03T07:07:29.327Z,81.83
2018-11-03T07:10:02.068Z,81.82
2018-11-03T07:12:34.489Z,81.07
2018-11-03T07:15:06.808Z,81.92
2018-11-03T07:17:39.130Z,81.62
2018-11-03T07:20:12.510Z,81.43
2018-11-03T07:22:44.843Z,81.34
2018-11-03T07:25:17.407Z,81.59
2018-11-03T07:27:49.737Z,81.39
2018-11-03T07:30:22.347Z,80.90
2018-11-03T07:32:54.666Z,80.77
2018-11-03T07:35:27.133Z,80.44
2018-11-03T07:37:59.545Z,80.57
2018-11-03T07:40:32.016Z,79.96
2018-11-03T07:43:04.696Z,79.91
2018-11-03T07:45:37.231Z,80.61
2018-11-03T07:48:09.774Z,80.12
2018-11-03T07:50:41.995Z,79.67
2018-11-03T07:53:14.351Z,79.40
2018-11-03T07:55:46.775Z,79.49
2018-11-03T07:58:19.208Z,79.58
2018-11-03T08:00:51.721Z,79.31
2018-11-03T08:03:24.049Z,78.94
2018-11-03T08:05:56.414Z,78.61
2018-11-03T08:08:28.868Z,77.69
2018-11-03T08:11:01.576Z,77.72
2018-11-03T08:13:33.995Z,77.62
2018-11-03T08:16:06.545Z,78.05
2018-11-03T08:18:38.862Z,77.84
2018-11-03T08:21:11.229Z,77.58
2018-11-03T08:23:43.804Z,77.81
2018-11-03T08:26:16.291Z,78.14
2018-11-03T08:28:48.690Z,77.94
2018-11-03T08:31:21.048Z,78.15
2018-11-03T08:33:53.470Z,78.17
2018-11-03T08:36:25.814Z,78.13
2018-11-03T08:38:58.343Z,77.98
2018-11-03T08:41:30.647Z,76.86
2018-11-03T08:44:03.009Z,77.31
2018-11-03T08:46:35.359Z,76.97
2018-11-03T08:49:07.931Z,76.67
2018-11-03T08:51:40.955Z,76.27
2018-11-03T08:54:13.510Z,75.77
2018-11-03T08:56:46.200Z,75.30
2018-11-03T08:59:18.538Z,74.94
2018-11-03T09:01:51.008Z,75.48
2018-11-03T09:04:23.574Z,75.36
2018-11-03T09:06:55.946Z,75.65
2018-11-03T09:09:28.334Z,75.66
2018-11-03T09:12:00.634Z,75.25
2018-11-03T09:14:33.138Z,74.80
2018-11-03T09:17:05.486Z,74.71
2018-11-03T09:19:37.814Z,74.44
2018-11-03T09:22:11.287Z,74.31
2018-11-03T09:24:43.842Z,74.26
2018-11-03T09:27:16.458Z,74.05
2018-11-03T09:29:51.986Z,73.66
2018-11-03T09:32:25.647Z,73.37
2018-11-03T09:34:59.094Z,73.35
2018-11-03T09:37:33.456Z,73.01
2018-11-03T09:40:07.802Z,72.78
2018-11-03T09:42:40.799Z,73.09
2018-11-03T09:45:13.517Z,73.08
2018-11-03T09:47:48.951Z,73.02
2018-11-03T09:50:21.535Z,72.04
2018-11-03T09:52:56.056Z,72.57
2018-11-03T09:55:29.313Z,72.00
2018-11-03T09:58:04.132Z,70.79
2018-11-03T10:00:37.566Z,71.10
2018-11-03T10:03:10.439Z,71.98
2018-11-03T10:05:44.375Z,71.67
2018-11-03T10:08:22.862Z,71.56
2018-11-03T10:10:55.505Z,71.04
2018-11-03T10:13:28.437Z,70.54
2018-11-03T10:16:01.006Z,70.80
2018-11-03T10:18:33.319Z,70.69
2018-11-03T10:21:06.074Z,70.53
2018-11-03T10:23:38.898Z,69.44
2018-11-03T10:26:11.225Z,68.75
2018-11-03T10:28:43.956Z,68.94
2018-11-03T10:31:16.262Z,68.76
2018-11-03T10:33:48.698Z,67.68
2018-11-03T10:36:20.944Z,68.14
2018-11-03T10:38:53.318Z,68.51
2018-11-03T10:41:25.655Z,67.22
2018-11-03T10:43:58.060Z,67.08
2018-11-03T10:46:31.664Z,67.76
2018-11-03T10:49:06.957Z,66.54
2018-11-03T10:51:39.429Z,66.38
2018-11-03T10:54:12.706Z,66.89
2018-11-03T10:56:45.301Z,66.74
2018-11-03T10:59:17.829Z,66.28
2018-11-03T11:01:55.882Z,66.18
2018-11-03T11:04:35.188Z,65.95
2018-11-03T11:07:13.464Z,66.04
2018-11-03T11:09:52.324Z,66.24
2018-11-03T11:12:31.503Z,65.14
2018-11-03T11:15:04.057Z,64.95
2018-11-03T11:17:36.553Z,65.45
2018-11-03T11:20:09.471Z,64.25
2018-11-03T11:22:41.887Z,63.21
2018-11-03T11:25:14.381Z,63.57
2018-11-03T11:27:46.837Z,64.50
2018-11-03T11:30:19.256Z,63.33
2018-11-03T11:32:51.926Z,63.07
2018-11-03T11:35:24.909Z,63.03
2018-11-03T11:37:57.387Z,62.90
2018-11-03T11:40:30.130Z,62.65
2018-11-03T11:43:04.599Z,62.58
2018-11-03T11:45:37.096Z,62.18
2018-11-03T11:48:09.878Z,62.89
2018-11-03T11:50:42.307Z,62.92
2018-11-03T11:53:14.929Z,62.02
2018-11-03T11:55:47.354Z,62.38
2018-11-03T11:58:20.596Z,62.29
2018-11-03T12:00:56.310Z,62.64
2018-11-03T12:03:28.780Z,62.53
2018-11-03T12:06:01.420Z,62.45
2018-11-03T12:08:34.090Z,62.50
2018-11-03T12:11:06.480Z,61.96
2018-11-03T12:13:40.080Z,62.61
2018-11-03T12:16:15.006Z,62.34
2018-11-03T12:18:51.350Z,61.87
2018-11-03T12:21:26.028Z,61.88
2018-11-03T12:24:00.175Z,62.00
2018-11-03T12:26:32.950Z,62.04
2018-11-03T12:29:05.582Z,61.76
2018-11-03T12:31:39.163Z,61.73
2018-11-03T12:34:11.626Z,61.21
2018-11-03T12:36:44.546Z,61.45
2018-11-03T12:39:16.941Z,61.56
2018-11-03T12:41:49.362Z,61.07
2018-11-03T12:44:22.006Z,60.54
2018-11-03T12:46:54.442Z,61.26
2018-11-03T12:49:26.869Z,60.50
2018-11-03T12:51:59.570Z,60.24
2018-11-03T12:54:32.111Z,60.66
2018-11-03T12:57:04.801Z,59.29
2018-11-03T12:59:37.160Z,59.62
2018-11-03T13:02:09.488Z,59.34
2018-11-03T13:04:42.202Z,60.14
2018-11-03T13:07:14.793Z,60.11
2018-11-03T13:09:47.875Z,59.97
2018-11-03T13:12:20.955Z,60.39
2018-11-03T13:14:53.895Z,60.31
2018-11-03T13:17:26.238Z,60.51
2018-11-03T13:19:58.974Z,60.14
2018-11-03T13:22:32.085Z,60.76
2018-11-03T13:25:05.196Z,60.77
2018-11-03T13:27:38.271Z,61.12
2018-11-03T13:30:12.794Z,61.44
2018-11-03T13:32:46.678Z,61.22
2018-11-03T13:35:23.513Z,61.64
2018-11-03T13:37:58.950Z,61.47
2018-11-03T13:40:31.410Z,60.74
2018-11-03T13:43:04.704Z,60.33
2018-11-03T13:45:38.509Z,60.59
2018-11-03T13:50:54.412Z,59.71
2018-11-03T13:53:26.932Z,60.49
2018-11-03T13:56:04.273Z,60.13
2018-11-03T13:58:36.830Z,60.35
2018-11-03T14:01:12.398Z,60.62
2018-11-03T14:03:45.243Z,61.05
2018-11-03T14:06:20.964Z,61.38
2018-11-03T14:08:54.481Z,61.01
2018-11-03T14:11:26.863Z,61.08
2018-11-03T14:13:59.275Z,61.79
2018-11-03T14:16:33.255Z,61.65
2018-11-03T14:19:05.691Z,62.37
2018-11-03T14:21:38.166Z,62.65
2018-11-03T14:24:10.639Z,62.60
2018-11-03T14:29:21.792Z,62.82
2018-11-03T14:31:54.304Z,62.60
2018-11-03T14:34:27.033Z,62.89
2018-11-03T14:36:59.387Z,62.83
2018-11-03T14:39:31.741Z,62.69
2018-11-03T14:42:04.201Z,63.16
2018-11-03T14:44:36.665Z,62.74
2018-11-03T14:47:09.971Z,62.55
2018-11-03T14:49:42.342Z,63.39
2018-11-03T14:52:14.829Z,62.67
2018-11-03T14:54:49.747Z,64.06
2018-11-03T14:57:22.277Z,63.54
2018-11-03T14:59:54.795Z,63.40
2018-11-03T15:02:27.399Z,63.66
2018-11-03T15:04:59.809Z,64.06
2018-11-03T15:07:32.181Z,64.39
2018-11-03T15:10:05.649Z,64.50
2018-11-03T15:12:38.064Z,64.39
2018-11-03T15:15:12.226Z,64.47
2018-11-03T15:17:45.170Z,64.77
2018-11-03T15:20:17.559Z,65.29
2018-11-03T15:22:49.996Z,65.26
2018-11-03T15:25:22.497Z,65.68
2018-11-03T15:27:54.943Z,65.92
2018-11-03T15:30:27.510Z,65.97
2018-11-03T15:33:00.009Z,65.59
2018-11-03T15:35:32.528Z,65.66
2018-11-03T15:38:06.123Z,66.03
2018-11-03T15:40:38.585Z,65.89
2018-11-03T15:43:12.456Z,66.23
2018-11-03T15:45:45.050Z,66.43
2018-11-03T15:48:17.584Z,66.26
2018-11-03T15:50:50.539Z,66.50
2018-11-03T15:53:23.549Z,66.73
2018-11-03T15:55:56.165Z,66.31
2018-11-03T15:58:28.646Z,66.61
2018-11-03T16:01:01.143Z,66.97
2018-11-03T16:03:33.789Z,67.38
2018-11-03T16:06:06.180Z,67.33
2018-11-03T16:08:40.506Z,67.42
2018-11-03T16:11:13.428Z,67.68
2018-11-03T16:13:50.192Z,67.49
2018-11-03T16:16:23.253Z,67.71
2018-11-03T16:18:55.774Z,67.60
2018-11-03T16:21:28.481Z,67.75
2018-11-03T16:24:08.306Z,67.69
2018-11-03T16:26:43.842Z,67.88
2018-11-03T16:29:16.234Z,67.04
2018-11-03T16:31:48.615Z,67.60
2018-11-03T16:34:21.008Z,68.34
2018-11-03T16:37:00.248Z,67.67
2018-11-03T16:39:35.468Z,67.80
2018-11-03T16:42:07.856Z,67.78
2018-11-03T16:44:40.280Z,68.14
2018-11-03T16:47:13.025Z,67.96
2018-11-03T16:49:45.391Z,68.24
2018-11-03T16:52:17.956Z,68.20
2018-11-03T16:54:50.252Z,67.75
2018-11-03T16:57:22.669Z,67.91
2018-11-03T16:59:54.980Z,67.96
2018-11-03T17:02:27.693Z,68.17
2018-11-03T17:05:00.102Z,68.37
2018-11-03T17:07:32.481Z,68.02
2018-11-03T17:10:07.304Z,68.85
2018-11-03T17:12:41.119Z,68.68
2018-11-03T17:15:13.514Z,68.63
2018-11-03T17:17:46.043Z,68.91
2018-11-03T17:20:18.624Z,68.23
2018-11-03T17:22:51.105Z,68.40
2018-11-03T17:25:23.597Z,68.45
2018-11-03T17:27:56.047Z,68.65
2018-11-03T17:30:28.394Z,68.88
2018-11-03T17:33:01.056Z,68.68
2018-11-03T17:35:33.509Z,68.71
2018-11-03T17:38:05.896Z,68.74
2018-11-03T17:40:38.261Z,68.89
2018-11-03T17:43:10.859Z,69.48
2018-11-03T17:45:43.166Z,69.51
2018-11-03T17:48:15.553Z,69.15
2018-11-03T17:50:48.091Z,69.38
2018-11-03T17:56:00.387Z,68.79
2018-11-03T17:58:32.952Z,69.07
2018-11-03T18:01:05.429Z,68.66
2018-11-03T18:03:38.140Z,68.73
2018-11-03T18:06:10.519Z,68.64
2018-11-03T18:08:42.975Z,69.11
2018-11-03T18:11:16.075Z,68.97
2018-11-03T18:13:48.533Z,69.38
2018-11-03T18:16:21.059Z,68.97
2018-11-03T18:18:53.622Z,69.15
2018-11-03T18:21:25.946Z,69.38
2018-11-03T18:23:58.335Z,69.34
2018-11-03T18:26:30.743Z,68.85
2018-11-03T18:29:03.137Z,69.23
2018-11-03T18:31:35.505Z,70.01
2018-11-03T18:34:07.898Z,69.17
2018-11-03T18:36:40.313Z,69.16
2018-11-03T18:39:12.681Z,69.23
2018-11-03T18:41:45.271Z,69.82
2018-11-03T18:44:17.643Z,69.45
2018-11-03T18:46:50.167Z,69.52
2018-11-03T18:49:22.491Z,69.40
2018-11-03T18:51:55.228Z,70.07
2018-11-03T18:54:27.732Z,69.86
2018-11-03T18:57:00.322Z,69.90
2018-11-03T18:59:32.770Z,70.54
2018-11-03T19:02:05.778Z,70.47
2018-11-03T19:04:38.350Z,70.82
2018-11-03T19:07:11.039Z,70.51
2018-11-03T19:09:43.489Z,70.30
2018-11-03T19:12:15.896Z,70.71
2018-11-03T19:14:48.267Z,70.31
2018-11-03T19:17:20.796Z,70.52
2018-11-03T19:19:53.342Z,69.92
2018-11-03T19:22:26.007Z,69.84
2018-11-03T19:24:58.442Z,70.07
2018-11-03T19:27:31.050Z,70.72
2018-11-03T19:30:04.421Z,70.23
2018-11-03T19:32:36.823Z,70.49
2018-11-03T19:35:09.439Z,70.48
2018-11-03T19:37:42.271Z,69.66
2018-11-03T19:40:14.812Z,69.23
2018-11-03T19:42:47.343Z,69.99
2018-11-03T19:45:20.046Z,70.31
2018-11-03T19:47:52.414Z,70.41
2018-11-03T19:50:24.929Z,70.35
2018-11-03T19:52:57.380Z,70.77
2018-11-03T19:55:29.749Z,70.86
2018-11-03T19:58:02.292Z,70.91
2018-11-03T20:00:34.844Z,71.13
2018-11-03T20:03:07.469Z,71.17
2018-11-03T20:05:39.811Z,70.42
2018-11-03T20:08:12.329Z,69.48
2018-11-03T20:10:44.754Z,70.44
2018-11-03T20:13:17.310Z,70.98
2018-11-03T20:15:49.863Z,71.60
2018-11-03T20:18:22.455Z,71.96
2018-11-03T20:20:54.820Z,72.04
2018-11-03T20:23:27.477Z,72.09
2018-11-03T20:25:59.976Z,72.07
2018-11-03T20:28:32.317Z,72.52
2018-11-03T20:31:04.933Z,72.69
2018-11-03T20:33:37.303Z,72.28
2018-11-03T20:36:09.810Z,72.62
2018-11-03T20:38:42.159Z,72.59
2018-11-03T20:41:14.673Z,72.24
2018-11-03T20:43:47.092Z,72.47
2018-11-03T20:46:19.659Z,72.48
2018-11-03T20:48:51.982Z,72.03
2018-11-03T20:51:24.453Z,72.23
2018-11-03T20:53:57.290Z,71.42
2018-11-03T20:56:29.855Z,71.70
2018-11-03T20:59:02.418Z,72.37
2018-11-03T21:01:34.860Z,72.40
2018-11-03T21:04:07.336Z,72.06
2018-11-03T21:06:39.930Z,72.12
2018-11-03T21:09:12.299Z,72.30
2018-11-03T21:11:45.098Z,72.56
2018-11-03T21:14:17.452Z,72.37
2018-11-03T21:16:49.929Z,72.44
2018-11-03T21:19:22.382Z,72.88
2018-11-03T21:21:54.821Z,72.53
2018-11-03T21:24:28.648Z,72.92
2018-11-03T21:27:01.180Z,72.71
2018-11-03T21:29:33.739Z,72.37
2018-11-03T21:32:06.939Z,72.46
2018-11-03T21:34:39.247Z,72.90
2018-11-03T21:37:11.861Z,72.82
2018-11-03T21:39:45.587Z,72.75
2018-11-03T21:42:20.037Z,72.90
2018-11-03T21:44:54.194Z,72.55
2018-11-03T21:47:27.002Z,72.59
2018-11-03T21:49:59.865Z,72.81
2018-11-03T21:52:32.612Z,72.72
2018-11-03T21:55:05.897Z,72.89
2018-11-03T21:57:38.306Z,72.54
2018-11-03T22:00:11.580Z,72.77
2018-11-03T22:02:45.299Z,72.95
2018-11-03T22:05:18.577Z,73.53
2018-11-03T22:07:52.271Z,73.38
2018-11-03T22:10:26.042Z,73.40
2018-11-03T22:12:58.551Z,73.48
2018-11-03T22:15:30.912Z,73.72
2018-11-03T22:18:03.302Z,73.67
2018-11-03T22:20:35.719Z,73.98
2018-11-03T22:23:08.031Z,73.84
2018-11-03T22:25:40.534Z,74.06
2018-11-03T22:28:13.026Z,73.64
2018-11-03T22:30:46.971Z,73.79
2018-11-03T22:33:20.483Z,73.87
2018-11-03T22:35:53.217Z,73.60
2018-11-03T22:38:26.077Z,73.82
2018-11-03T22:40:58.533Z,73.77
2018-11-03T22:43:30.954Z,74.03
2018-11-03T22:46:03.396Z,73.49
2018-11-03T22:48:35.817Z,73.82
2018-11-03T22:51:14.108Z,73.38
2018-11-03T22:53:49.078Z,73.79
2018-11-03T22:56:22.296Z,74.24
2018-11-03T22:58:54.821Z,74.22
2018-11-03T23:01:28.008Z,74.44
2018-11-03T23:04:00.571Z,74.14
2018-11-03T23:06:32.972Z,74.66
2018-11-03T23:09:06.166Z,74.43
2018-11-03T23:11:38.525Z,74.50
2018-11-03T23:14:11.013Z,74.45
2018-11-03T23:16:43.466Z,74.51
2018-11-03T23:19:16.493Z,74.83
2018-11-03T23:21:50.060Z,74.87
2018-11-03T23:24:23.470Z,74.38
2018-11-03T23:26:56.333Z,74.73
2018-11-03T23:29:28.977Z,74.78
2018-11-03T23:32:01.349Z,75.02
2018-11-03T23:34:33.991Z,75.41
2018-11-03T23:37:06.969Z,75.00
2018-11-03T23:39:39.390Z,75.47
2018-11-03T23:42:11.837Z,75.80
2018-11-03T23:44:45.118Z,75.61
2018-11-03T23:47:19.131Z,75.43
2018-11-03T23:49:52.807Z,75.03
2018-11-03T23:52:31.071Z,74.70
2018-11-03T23:55:05.082Z,74.89
2018-11-03T23:57:37.780Z,73.81
